Ana Sayfa
METAR-TAF:

METAR-TAF

Havaalanları :

Lonesome Pine Airport

Wise, Virginia, Amerika Birleşik Devletleri

Enlem: 36-59N, Boylam: 082-32W, yükseklik: 817 m

Güncel hava durumu gözlemi

Rapor saat 23:15 UTC de 32 dakika önce yapıldı.
Rüzgar güney/güneybatıdan 3 kt
Sıcaklık 12°C
Nem 71%
Basınç 1019 hPa
Görüş mesafesi: 16.1 km
12000 ft yükseklikte parçalı çok bulutlu

METAR: KLNP 232315Z AUTO 21003KT 10SM BKN120 12/07 A3009 RMK AO2

Saat: 19:47 (23:47 UTC)


TAF: eksik

4.000'den fazla havaalanı için hava durumu gözlemleri ve tahminleri (METAR ve TAF raporları).

Kullanılabilir istasyonlar harita üzerinde sarı ve kırmızı noktalarla gösterilir.

İstasyonun adını görmek için fareyi noktanın üzerinde gezdirin.

Sonrasında hava gözlem ve tahminlerini görmek için tıklayın.

Haritayı değiştirmek için: yaklaştırmak için siyah artı işaretli yeşil düğmeye ve uzaklaştırmak için de eksi işaretli düğmeye hızla tıklayın; bitişik haritalar için yeşil okları kullanın.


METAR-TAF: